createdAt,value
2018-12-27T00:01:34.945Z,3.20
2018-12-27T00:04:06.679Z,3.20
2018-12-27T00:06:38.562Z,3.20
2018-12-27T00:09:10.419Z,3.20
2018-12-27T00:11:42.263Z,3.20
2018-12-27T00:14:14.055Z,3.20
2018-12-27T00:16:46.202Z,3.20
2018-12-27T00:19:18.190Z,3.20
2018-12-27T00:21:50.049Z,3.20
2018-12-27T00:24:21.964Z,3.20
2018-12-27T00:26:53.890Z,3.20
2018-12-27T00:29:25.755Z,3.20
2018-12-27T00:31:57.773Z,3.20
2018-12-27T00:34:29.708Z,3.20
2018-12-27T00:37:01.744Z,3.20
2018-12-27T00:39:33.807Z,3.20
2018-12-27T00:42:05.804Z,3.20
2018-12-27T00:44:39.262Z,3.20
2018-12-27T00:47:11.214Z,3.20
2018-12-27T00:49:43.226Z,3.20
2018-12-27T00:52:15.215Z,3.20
2018-12-27T00:54:47.199Z,3.10
2018-12-27T00:57:19.266Z,3.10
2018-12-27T00:59:51.304Z,3.10
2018-12-27T01:02:23.303Z,3.10
2018-12-27T01:04:55.256Z,3.10
2018-12-27T01:07:27.264Z,3.10
2018-12-27T01:09:59.275Z,3.10
2018-12-27T01:12:31.265Z,3.10
2018-12-27T01:15:03.183Z,3.20
2018-12-27T01:17:35.199Z,3.20
2018-12-27T01:20:07.144Z,3.20
2018-12-27T01:22:39.098Z,3.20
2018-12-27T01:25:11.020Z,3.10
2018-12-27T01:27:42.954Z,3.20
2018-12-27T01:30:14.934Z,3.20
2018-12-27T01:32:46.855Z,3.20
2018-12-27T01:35:18.918Z,3.30
2018-12-27T01:37:50.907Z,3.20
2018-12-27T01:40:22.942Z,3.20
2018-12-27T01:42:54.980Z,3.20
2018-12-27T01:45:27.015Z,3.20
2018-12-27T01:47:58.983Z,3.20
2018-12-27T01:50:31.011Z,3.20
2018-12-27T01:53:03.005Z,3.20
2018-12-27T01:55:35.049Z,3.20
2018-12-27T01:58:07.090Z,3.20
2018-12-27T02:00:39.137Z,3.20
2018-12-27T02:03:13.667Z,3.20
2018-12-27T02:05:45.636Z,3.20
2018-12-27T02:08:17.606Z,3.20
2018-12-27T02:10:49.609Z,3.20
2018-12-27T02:13:22.507Z,3.20
2018-12-27T02:15:54.506Z,3.20
2018-12-27T02:18:29.511Z,3.30
2018-12-27T02:21:01.488Z,3.30
2018-12-27T02:23:33.506Z,3.30
2018-12-27T02:26:05.486Z,3.30
2018-12-27T02:28:37.539Z,3.20
2018-12-27T02:31:09.589Z,3.30
2018-12-27T02:33:41.627Z,3.30
2018-12-27T02:36:14.540Z,3.30
2018-12-27T02:38:46.545Z,3.30
2018-12-27T02:41:18.577Z,3.30
2018-12-27T02:43:50.856Z,3.30
2018-12-27T02:46:22.841Z,3.30
2018-12-27T02:48:54.872Z,3.30
2018-12-27T02:51:26.865Z,3.30
2018-12-27T02:53:58.827Z,3.20
2018-12-27T02:56:30.818Z,3.20
2018-12-27T02:59:02.840Z,3.20
2018-12-27T03:01:36.023Z,3.20
2018-12-27T03:04:08.971Z,3.20
2018-12-27T03:06:40.884Z,3.30
2018-12-27T03:09:12.862Z,3.20
2018-12-27T03:11:44.795Z,3.20
2018-12-27T03:14:18.142Z,3.30
2018-12-27T03:16:50.104Z,3.30
2018-12-27T03:19:22.158Z,3.30
2018-12-27T03:21:54.156Z,3.30
2018-12-27T03:24:26.157Z,3.40
2018-12-27T03:26:58.160Z,3.40
2018-12-27T03:29:30.191Z,3.30
2018-12-27T03:32:02.187Z,3.40
2018-12-27T03:34:34.217Z,3.40
2018-12-27T03:37:06.343Z,3.30
2018-12-27T03:39:38.315Z,3.30
2018-12-27T03:42:10.470Z,3.20
2018-12-27T03:44:42.672Z,3.20
2018-12-27T03:47:14.778Z,3.30
2018-12-27T03:49:46.869Z,3.30
2018-12-27T03:52:18.996Z,3.30
2018-12-27T03:54:51.008Z,3.30
2018-12-27T03:57:23.036Z,3.30
2018-12-27T03:59:55.050Z,3.30
2018-12-27T04:02:27.138Z,3.30
2018-12-27T04:05:00.302Z,3.30
2018-12-27T04:07:32.331Z,3.30
2018-12-27T04:10:04.458Z,3.30
2018-12-27T04:12:36.533Z,3.30
2018-12-27T04:15:10.103Z,3.30
2018-12-27T04:17:44.891Z,3.30
2018-12-27T04:20:17.445Z,3.30
2018-12-27T04:22:49.210Z,3.30
2018-12-27T04:25:21.375Z,3.30
2018-12-27T04:27:53.191Z,3.30
2018-12-27T04:30:25.542Z,3.30
2018-12-27T04:32:59.560Z,3.30
2018-12-27T04:35:31.646Z,3.30
2018-12-27T04:38:03.557Z,3.30
2018-12-27T04:40:35.433Z,3.30
2018-12-27T04:43:09.112Z,3.30
2018-12-27T04:45:40.892Z,3.40
2018-12-27T04:48:14.341Z,3.40
2018-12-27T04:50:46.247Z,3.40
2018-12-27T04:53:17.602Z,3.40
2018-12-27T04:55:49.359Z,3.50
2018-12-27T04:58:21.195Z,3.40
2018-12-27T05:00:54.183Z,3.30
2018-12-27T05:03:28.309Z,3.40
2018-12-27T05:06:01.116Z,3.30
2018-12-27T05:08:32.660Z,3.40
2018-12-27T05:11:04.433Z,3.40
2018-12-27T05:13:36.400Z,3.40
2018-12-27T05:16:10.037Z,3.40
2018-12-27T05:18:41.913Z,3.30
2018-12-27T05:21:13.743Z,3.30
2018-12-27T05:23:45.559Z,3.30
2018-12-27T05:26:17.363Z,3.30
2018-12-27T05:28:48.822Z,3.30
2018-12-27T05:31:20.560Z,3.40
2018-12-27T05:33:53.489Z,3.40
2018-12-27T05:36:25.241Z,3.50
2018-12-27T05:38:57.935Z,3.50
2018-12-27T05:41:29.690Z,3.50
2018-12-27T05:44:01.103Z,3.50
2018-12-27T05:46:32.558Z,3.50
2018-12-27T05:49:04.372Z,3.50
2018-12-27T05:51:36.278Z,3.50
2018-12-27T05:54:09.006Z,3.50
2018-12-27T05:56:40.727Z,3.60
2018-12-27T05:59:12.579Z,3.50
2018-12-27T06:01:44.456Z,3.60
2018-12-27T06:04:16.282Z,3.50
2018-12-27T06:06:49.644Z,3.50
2018-12-27T06:09:21.395Z,3.50
2018-12-27T06:11:53.275Z,3.50
2018-12-27T06:14:25.092Z,3.50
2018-12-27T06:16:56.949Z,3.40
2018-12-27T06:19:30.367Z,3.40
2018-12-27T06:22:02.181Z,3.40
2018-12-27T06:24:34.015Z,3.40
2018-12-27T06:27:05.934Z,3.40
2018-12-27T06:29:38.968Z,3.30
2018-12-27T06:32:13.277Z,3.30
2018-12-27T06:34:45.150Z,3.30
2018-12-27T06:37:17.735Z,3.20
2018-12-27T06:39:50.511Z,3.30
2018-12-27T06:42:22.375Z,3.30
2018-12-27T06:44:54.181Z,3.40
2018-12-27T06:47:25.951Z,3.40
2018-12-27T06:49:57.357Z,3.30
2018-12-27T06:52:33.196Z,3.30
2018-12-27T06:55:06.178Z,3.40
2018-12-27T06:57:37.986Z,3.40
2018-12-27T07:00:12.552Z,3.40
2018-12-27T07:02:44.344Z,3.40
2018-12-27T07:05:16.206Z,3.40
2018-12-27T07:07:48.048Z,3.40
2018-12-27T07:10:21.441Z,3.40
2018-12-27T07:12:53.311Z,3.50
2018-12-27T07:15:25.200Z,3.50
2018-12-27T07:17:57.040Z,3.50
2018-12-27T07:20:28.891Z,3.50
2018-12-27T07:23:00.719Z,3.50
2018-12-27T07:25:32.553Z,3.50
2018-12-27T07:28:04.427Z,3.60
2018-12-27T07:30:36.299Z,3.60
2018-12-27T07:33:08.002Z,3.70
2018-12-27T07:35:39.915Z,3.60
2018-12-27T07:38:11.703Z,3.60
2018-12-27T07:40:45.199Z,3.60
2018-12-27T07:43:17.035Z,3.60
2018-12-27T07:45:48.919Z,3.60
2018-12-27T07:48:20.746Z,3.50
2018-12-27T07:50:52.626Z,3.30
2018-12-27T07:53:24.532Z,3.30
2018-12-27T07:55:56.391Z,3.20
2018-12-27T07:58:28.328Z,3.20
2018-12-27T08:01:00.085Z,3.20
2018-12-27T08:03:32.031Z,3.20
2018-12-27T08:06:03.837Z,3.20
2018-12-27T08:08:35.669Z,3.30
2018-12-27T08:11:07.464Z,3.30
2018-12-27T08:13:39.320Z,3.40
2018-12-27T08:16:11.218Z,3.50
2018-12-27T08:18:43.061Z,3.60
2018-12-27T08:21:14.938Z,3.80
2018-12-27T08:23:46.745Z,4.00
2018-12-27T08:26:18.578Z,4.20
2018-12-27T08:28:50.407Z,4.30
2018-12-27T08:31:22.263Z,4.60
2018-12-27T08:33:54.127Z,4.70
2018-12-27T08:36:27.267Z,4.90
2018-12-27T08:38:59.149Z,5.10
2018-12-27T08:41:30.971Z,5.20
2018-12-27T08:44:02.799Z,5.40
2018-12-27T08:46:34.688Z,5.50
2018-12-27T08:49:06.482Z,5.60
2018-12-27T08:51:38.357Z,5.70
2018-12-27T08:54:10.186Z,5.80
2018-12-27T08:56:41.999Z,5.90
2018-12-27T08:59:13.906Z,5.90
2018-12-27T09:01:45.791Z,5.90
2018-12-27T09:04:17.645Z,5.90
2018-12-27T09:06:49.497Z,5.90
2018-12-27T09:09:21.348Z,5.70
2018-12-27T09:11:53.187Z,5.70
2018-12-27T09:14:24.988Z,5.70
2018-12-27T09:16:56.828Z,5.70
2018-12-27T09:19:28.662Z,5.70
2018-12-27T09:22:00.503Z,5.70
2018-12-27T09:24:32.406Z,5.80
2018-12-27T09:27:04.230Z,5.80
2018-12-27T09:29:36.064Z,5.90
2018-12-27T09:32:08.803Z,5.90
2018-12-27T09:34:40.666Z,5.90
2018-12-27T09:37:12.532Z,5.90
2018-12-27T09:39:44.362Z,5.90
2018-12-27T09:42:16.278Z,5.90
2018-12-27T09:44:48.145Z,5.90
2018-12-27T09:47:19.927Z,5.90
2018-12-27T09:49:51.767Z,5.90
2018-12-27T09:52:23.623Z,6.00
2018-12-27T09:54:55.424Z,6.10
2018-12-27T09:57:27.340Z,6.10
2018-12-27T09:59:59.348Z,6.20
2018-12-27T10:02:31.159Z,6.20
2018-12-27T10:05:02.966Z,6.30
2018-12-27T10:07:36.394Z,6.30
2018-12-27T10:10:08.385Z,6.30
2018-12-27T10:12:40.264Z,6.40
2018-12-27T10:15:12.100Z,6.30
2018-12-27T10:17:43.994Z,6.30
2018-12-27T10:20:15.746Z,6.30
2018-12-27T10:22:47.622Z,6.30
2018-12-27T10:25:19.334Z,6.20
2018-12-27T10:27:51.187Z,6.10
2018-12-27T10:30:23.093Z,6.00
2018-12-27T10:32:54.955Z,5.90
2018-12-27T10:35:26.848Z,5.80
2018-12-27T10:37:58.679Z,5.70
2018-12-27T10:40:30.554Z,5.60
2018-12-27T10:43:02.380Z,5.60
2018-12-27T10:45:34.246Z,5.60
2018-12-27T10:48:06.071Z,5.60
2018-12-27T10:50:37.822Z,5.60
2018-12-27T10:53:09.649Z,5.60
2018-12-27T10:55:41.475Z,5.70
2018-12-27T10:58:13.289Z,5.90
2018-12-27T11:00:45.135Z,6.00
2018-12-27T11:03:21.298Z,6.20
2018-12-27T11:05:53.064Z,6.30
2018-12-27T11:08:24.867Z,6.30
2018-12-27T11:10:56.756Z,6.40
2018-12-27T11:13:28.567Z,6.40
2018-12-27T11:16:00.410Z,6.30
2018-12-27T11:18:33.520Z,6.30
2018-12-27T11:21:05.363Z,6.30
2018-12-27T11:23:37.163Z,6.20
2018-12-27T11:26:08.926Z,6.10
2018-12-27T11:28:40.735Z,6.00
2018-12-27T11:31:12.529Z,5.90
2018-12-27T11:33:44.331Z,5.90
2018-12-27T11:36:22.980Z,5.80
2018-12-27T11:38:54.852Z,5.90
2018-12-27T11:41:26.644Z,6.00
2018-12-27T11:43:58.394Z,6.30
2018-12-27T11:46:30.239Z,6.70
2018-12-27T11:49:02.962Z,7.20
2018-12-27T11:51:34.840Z,7.60
2018-12-27T11:54:06.634Z,8.00
2018-12-27T11:56:38.454Z,8.20
2018-12-27T11:59:10.301Z,8.40
2018-12-27T12:01:42.028Z,8.70
2018-12-27T12:04:15.176Z,9.00
2018-12-27T12:06:46.915Z,9.40
2018-12-27T12:09:18.762Z,9.70
2018-12-27T12:11:50.502Z,10.00
2018-12-27T12:14:22.346Z,10.20
2018-12-27T12:16:54.163Z,10.50
2018-12-27T12:19:25.978Z,10.60
2018-12-27T12:21:57.814Z,10.90
2018-12-27T12:24:29.627Z,11.10
2018-12-27T12:27:01.425Z,11.30
2018-12-27T12:29:33.198Z,11.20
2018-12-27T12:32:05.029Z,11.30
2018-12-27T12:34:36.837Z,11.40
2018-12-27T12:37:13.964Z,11.50
2018-12-27T12:39:42.255Z,11.50
2018-12-27T12:42:15.743Z,11.40
2018-12-27T12:44:49.458Z,11.20
2018-12-27T12:47:21.271Z,11.10
2018-12-27T12:49:53.192Z,10.90
2018-12-27T12:52:24.949Z,10.70
2018-12-27T12:54:56.827Z,10.40
2018-12-27T12:57:28.643Z,10.20
2018-12-27T13:00:00.432Z,10.00
2018-12-27T13:02:32.198Z,9.80
2018-12-27T13:05:04.050Z,9.60
2018-12-27T13:07:35.886Z,9.50
2018-12-27T13:10:08.923Z,9.50
2018-12-27T13:12:40.680Z,9.40
2018-12-27T13:15:12.495Z,9.40
2018-12-27T13:17:44.246Z,9.50
2018-12-27T13:20:16.003Z,9.70
2018-12-27T13:22:47.750Z,10.00
2018-12-27T13:25:19.495Z,10.20
2018-12-27T13:27:51.338Z,10.30
2018-12-27T13:30:23.121Z,10.40
2018-12-27T13:32:54.942Z,10.40
2018-12-27T13:35:28.058Z,10.30
2018-12-27T13:37:59.820Z,10.10
2018-12-27T13:40:31.576Z,9.90
2018-12-27T13:43:03.442Z,9.80
2018-12-27T13:45:35.272Z,9.50
2018-12-27T13:48:06.991Z,9.30
2018-12-27T13:50:38.762Z,9.20
2018-12-27T13:53:10.623Z,9.00
2018-12-27T13:55:42.364Z,8.90
2018-12-27T13:58:14.245Z,8.80
2018-12-27T14:00:46.046Z,8.80
2018-12-27T14:03:17.863Z,8.70
2018-12-27T14:05:50.633Z,8.60
2018-12-27T14:08:22.414Z,8.50
2018-12-27T14:10:54.129Z,8.40
2018-12-27T14:13:25.986Z,8.30
2018-12-27T14:15:57.832Z,8.20
2018-12-27T14:18:29.615Z,8.10
2018-12-27T14:21:01.442Z,8.00
2018-12-27T14:23:33.183Z,8.00
2018-12-27T14:26:06.258Z,7.90
2018-12-27T14:28:38.110Z,7.70
2018-12-27T14:31:09.937Z,7.70
2018-12-27T14:33:41.787Z,7.60
2018-12-27T14:36:13.652Z,7.50
2018-12-27T14:38:46.406Z,7.30
2018-12-27T14:41:18.062Z,7.10
2018-12-27T14:43:50.541Z,7.00
2018-12-27T14:46:23.327Z,6.80
2018-12-27T14:48:55.373Z,6.70
2018-12-27T14:51:27.166Z,6.50
2018-12-27T14:53:59.170Z,6.40
2018-12-27T14:56:31.241Z,6.20
2018-12-27T14:59:04.275Z,6.10
2018-12-27T15:01:36.364Z,5.90
2018-12-27T15:04:08.453Z,5.80
2018-12-27T15:06:46.916Z,5.70
2018-12-27T15:09:15.369Z,5.50
2018-12-27T15:11:47.415Z,5.50
2018-12-27T15:14:19.399Z,5.40
2018-12-27T15:16:51.238Z,5.30
2018-12-27T15:19:23.027Z,5.20
2018-12-27T15:21:54.774Z,5.10
2018-12-27T15:24:27.696Z,5.00
2018-12-27T15:26:59.462Z,4.90
2018-12-27T15:29:31.412Z,4.80
2018-12-27T15:32:03.676Z,4.70
2018-12-27T15:34:35.551Z,4.60
2018-12-27T15:37:07.420Z,4.50
2018-12-27T15:39:39.347Z,4.40
2018-12-27T15:42:11.129Z,4.30
2018-12-27T15:44:42.982Z,4.30
2018-12-27T15:47:16.078Z,4.20
2018-12-27T15:49:48.023Z,4.20
2018-12-27T15:52:19.883Z,4.10
2018-12-27T15:54:51.765Z,4.10
2018-12-27T15:57:23.518Z,4.10
2018-12-27T15:59:55.392Z,4.00
2018-12-27T16:02:27.281Z,4.00
2018-12-27T16:04:59.132Z,3.90
2018-12-27T16:07:31.054Z,3.90
2018-12-27T16:10:03.013Z,3.80
2018-12-27T16:12:35.835Z,3.80
2018-12-27T16:15:08.179Z,3.80
2018-12-27T16:17:41.334Z,3.80
2018-12-27T16:20:13.199Z,3.80
2018-12-27T16:22:45.102Z,3.80
2018-12-27T16:25:17.049Z,3.80
2018-12-27T16:27:48.925Z,3.70
2018-12-27T16:30:20.735Z,3.70
2018-12-27T16:32:52.659Z,3.70
2018-12-27T16:35:24.546Z,3.70
2018-12-27T16:37:56.394Z,3.70
2018-12-27T16:40:28.445Z,3.70
2018-12-27T16:43:00.322Z,3.60
2018-12-27T16:45:32.243Z,3.60
2018-12-27T16:48:04.128Z,3.60
2018-12-27T16:50:36.065Z,3.60
2018-12-27T16:53:07.956Z,3.70
2018-12-27T16:55:40.780Z,3.60
2018-12-27T16:58:12.614Z,3.60
2018-12-27T17:00:44.414Z,3.60
2018-12-27T17:03:22.015Z,3.60
2018-12-27T17:05:54.962Z,3.60
2018-12-27T17:08:27.027Z,3.60
2018-12-27T17:10:58.859Z,3.60
2018-12-27T17:13:31.763Z,3.50
2018-12-27T17:16:03.638Z,3.50
2018-12-27T17:18:35.497Z,3.50
2018-12-27T17:21:07.332Z,3.50
2018-12-27T17:23:39.247Z,3.50
2018-12-27T17:26:13.104Z,3.50
2018-12-27T17:28:44.992Z,3.40
2018-12-27T17:31:18.140Z,3.40
2018-12-27T17:33:50.045Z,3.40
2018-12-27T17:36:23.138Z,3.30
2018-12-27T17:38:55.972Z,3.30
2018-12-27T17:41:27.847Z,3.30
2018-12-27T17:44:00.721Z,3.30
2018-12-27T17:46:32.815Z,3.30
2018-12-27T17:49:04.749Z,3.20
2018-12-27T17:51:36.602Z,3.20
2018-12-27T17:54:08.478Z,3.20
2018-12-27T17:56:40.370Z,3.20
2018-12-27T17:59:12.189Z,3.10
2018-12-27T18:01:44.088Z,3.10
2018-12-27T18:04:16.355Z,3.10
2018-12-27T18:06:48.221Z,3.10
2018-12-27T18:09:24.902Z,3.00
2018-12-27T18:11:57.753Z,3.00
2018-12-27T18:14:32.459Z,2.90
2018-12-27T18:17:04.380Z,2.90
2018-12-27T18:19:36.221Z,2.90
2018-12-27T18:22:08.158Z,2.90
2018-12-27T18:24:42.962Z,2.90
2018-12-27T18:27:14.833Z,2.80
2018-12-27T18:29:47.754Z,2.80
2018-12-27T18:32:20.676Z,2.70
2018-12-27T18:34:53.542Z,2.70
2018-12-27T18:37:25.493Z,2.70
2018-12-27T18:39:57.363Z,2.70
2018-12-27T18:42:29.225Z,2.70
2018-12-27T18:45:01.116Z,2.70
2018-12-27T18:47:32.944Z,2.70
2018-12-27T18:50:04.822Z,2.60
2018-12-27T18:52:36.643Z,2.60
2018-12-27T18:55:08.532Z,2.60
2018-12-27T18:57:40.429Z,2.60
2018-12-27T19:00:12.936Z,2.60
2018-12-27T19:02:44.835Z,2.60
2018-12-27T19:05:16.704Z,2.70
2018-12-27T19:07:48.920Z,2.70
2018-12-27T19:10:20.788Z,2.70
2018-12-27T19:13:13.122Z,2.70
2018-12-27T19:16:00.188Z,2.80
2018-12-27T19:18:35.763Z,2.90
2018-12-27T19:21:24.546Z,2.90
2018-12-27T19:23:56.318Z,2.90
2018-12-27T19:26:29.169Z,3.00
2018-12-27T19:29:01.091Z,3.00
2018-12-27T19:31:33.122Z,3.00
2018-12-27T19:34:04.999Z,3.10
2018-12-27T19:36:36.998Z,3.10
2018-12-27T19:39:08.815Z,3.10
2018-12-27T19:41:42.930Z,3.10
2018-12-27T19:44:14.752Z,3.20
2018-12-27T19:46:46.517Z,3.20
2018-12-27T19:49:19.781Z,3.10
2018-12-27T19:51:51.700Z,3.10
2018-12-27T19:54:24.130Z,3.10
2018-12-27T19:56:56.604Z,3.00
2018-12-27T19:59:28.519Z,3.00
2018-12-27T20:02:01.377Z,3.00
2018-12-27T20:04:33.231Z,3.00
2018-12-27T20:07:05.100Z,3.00
2018-12-27T20:09:36.920Z,2.90
2018-12-27T20:12:08.835Z,2.90
2018-12-27T20:14:42.002Z,2.90
2018-12-27T20:17:13.913Z,2.90
2018-12-27T20:19:45.800Z,2.90
2018-12-27T20:22:17.919Z,2.90
2018-12-27T20:24:49.920Z,2.90
2018-12-27T20:27:21.702Z,2.90
2018-12-27T20:29:53.573Z,2.90
2018-12-27T20:32:26.736Z,2.90
2018-12-27T20:34:58.574Z,2.80
2018-12-27T20:37:30.480Z,2.80
2018-12-27T20:40:02.324Z,2.80
2018-12-27T20:42:33.771Z,2.80
2018-12-27T20:45:05.657Z,2.80
2018-12-27T20:47:37.107Z,2.80
2018-12-27T20:50:09.016Z,2.80
2018-12-27T20:52:40.958Z,2.70
2018-12-27T20:55:12.851Z,2.70
2018-12-27T20:57:44.735Z,2.70
2018-12-27T21:00:16.895Z,2.70
2018-12-27T21:02:48.818Z,2.60
2018-12-27T21:05:20.278Z,2.60
2018-12-27T21:07:52.058Z,2.60
2018-12-27T21:10:23.926Z,2.60
2018-12-27T21:12:55.850Z,2.70
2018-12-27T21:15:28.743Z,2.80
2018-12-27T21:18:00.350Z,2.70
2018-12-27T21:20:32.387Z,2.60
2018-12-27T21:23:03.874Z,2.50
2018-12-27T21:25:36.651Z,2.40
2018-12-27T21:28:08.536Z,2.40
2018-12-27T21:30:40.506Z,2.40
2018-12-27T21:33:13.120Z,2.30
2018-12-27T21:35:45.004Z,2.30
2018-12-27T21:38:21.403Z,2.20
2018-12-27T21:40:50.295Z,2.10
2018-12-27T21:43:22.195Z,2.10
2018-12-27T21:45:54.030Z,2.10
2018-12-27T21:48:25.999Z,2.10
2018-12-27T21:50:58.987Z,2.10
2018-12-27T21:53:32.150Z,2.00
2018-12-27T21:56:03.785Z,2.00
2018-12-27T21:58:35.651Z,2.00
2018-12-27T22:01:07.164Z,2.00
2018-12-27T22:03:38.947Z,2.10
2018-12-27T22:06:11.752Z,2.10
2018-12-27T22:08:43.600Z,2.10
2018-12-27T22:11:15.478Z,2.00
2018-12-27T22:13:47.390Z,2.10
2018-12-27T22:16:19.235Z,2.10
2018-12-27T22:18:50.698Z,2.10
2018-12-27T22:21:22.488Z,2.10
2018-12-27T22:23:54.332Z,2.20
2018-12-27T22:26:26.154Z,2.20
2018-12-27T22:28:58.259Z,2.20
2018-12-27T22:31:29.654Z,2.30
2018-12-27T22:34:01.389Z,2.30
2018-12-27T22:36:33.721Z,2.30
2018-12-27T22:39:08.112Z,2.40
2018-12-27T22:41:39.919Z,2.40
2018-12-27T22:44:11.715Z,2.40
2018-12-27T22:46:43.540Z,2.40
2018-12-27T22:49:15.010Z,2.40
2018-12-27T22:51:46.748Z,2.40
2018-12-27T22:54:18.255Z,2.50
2018-12-27T22:56:50.051Z,2.50
2018-12-27T22:59:21.917Z,2.50
2018-12-27T23:01:53.861Z,2.50
2018-12-27T23:04:25.825Z,2.40
2018-12-27T23:06:57.695Z,2.40
2018-12-27T23:09:29.569Z,2.30
2018-12-27T23:12:01.453Z,2.40
2018-12-27T23:14:33.343Z,2.40
2018-12-27T23:17:05.411Z,2.40
2018-12-27T23:19:37.205Z,2.40
2018-12-27T23:22:08.700Z,2.30
2018-12-27T23:24:40.513Z,2.30
2018-12-27T23:27:12.157Z,2.30
2018-12-27T23:29:43.690Z,2.20
2018-12-27T23:32:15.526Z,2.20
2018-12-27T23:34:48.649Z,2.20
2018-12-27T23:37:20.160Z,2.20
2018-12-27T23:39:51.975Z,2.20
2018-12-27T23:42:23.958Z,2.20
2018-12-27T23:44:55.850Z,2.10
2018-12-27T23:47:27.916Z,2.20
2018-12-27T23:50:00.827Z,2.20
2018-12-27T23:52:32.656Z,2.30
2018-12-27T23:55:04.209Z,2.30
2018-12-27T23:57:36.114Z,2.20
